sensor_id;sensor_type;location;lat;lon;timestamp;P1;durP1;ratioP1;P2;durP2;ratioP2
29120;SDS011;16191;49.548;8.658;2024-01-30T00:01:55;11.80;;;5.28;;
29120;SDS011;16191;49.548;8.658;2024-01-30T00:04:22;11.27;;;4.93;;
29120;SDS011;16191;49.548;8.658;2024-01-30T00:06:50;12.55;;;5.07;;
29120;SDS011;16191;49.548;8.658;2024-01-30T00:09:17;9.15;;;4.78;;
29120;SDS011;16191;49.548;8.658;2024-01-30T00:11:43;10.57;;;5.13;;
29120;SDS011;16191;49.548;8.658;2024-01-30T00:14:10;8.52;;;4.90;;
29120;SDS011;16191;49.548;8.658;2024-01-30T00:16:37;9.52;;;4.57;;
29120;SDS011;16191;49.548;8.658;2024-01-30T00:19:04;10.98;;;4.60;;
29120;SDS011;16191;49.548;8.658;2024-01-30T00:21:31;9.18;;;4.38;;
29120;SDS011;16191;49.548;8.658;2024-01-30T00:23:58;7.82;;;4.63;;
29120;SDS011;16191;49.548;8.658;2024-01-30T00:26:24;8.95;;;4.57;;
29120;SDS011;16191;49.548;8.658;2024-01-30T00:28:51;9.85;;;4.07;;
29120;SDS011;16191;49.548;8.658;2024-01-30T00:31:18;9.45;;;4.32;;
29120;SDS011;16191;49.548;8.658;2024-01-30T00:33:45;11.13;;;4.40;;
29120;SDS011;16191;49.548;8.658;2024-01-30T00:36:11;9.80;;;4.28;;
29120;SDS011;16191;49.548;8.658;2024-01-30T00:38:38;8.98;;;4.70;;
29120;SDS011;16191;49.548;8.658;2024-01-30T00:41:05;10.60;;;4.80;;
29120;SDS011;16191;49.548;8.658;2024-01-30T00:43:31;11.10;;;4.82;;
29120;SDS011;16191;49.548;8.658;2024-01-30T00:45:58;11.43;;;4.90;;
29120;SDS011;16191;49.548;8.658;2024-01-30T00:48:25;14.30;;;5.72;;
29120;SDS011;16191;49.548;8.658;2024-01-30T00:50:52;10.25;;;4.75;;
29120;SDS011;16191;49.548;8.658;2024-01-30T00:53:19;10.85;;;4.82;;
29120;SDS011;16191;49.548;8.658;2024-01-30T00:55:46;9.75;;;4.18;;
29120;SDS011;16191;49.548;8.658;2024-01-30T00:58:13;12.77;;;4.85;;
29120;SDS011;16191;49.548;8.658;2024-01-30T01:00:39;6.43;;;3.78;;
29120;SDS011;16191;49.548;8.658;2024-01-30T01:03:06;6.88;;;3.50;;
29120;SDS011;16191;49.548;8.658;2024-01-30T01:05:33;8.23;;;3.72;;
29120;SDS011;16191;49.548;8.658;2024-01-30T01:07:59;7.07;;;4.13;;
29120;SDS011;16191;49.548;8.658;2024-01-30T01:10:26;5.80;;;3.53;;
29120;SDS011;16191;49.548;8.658;2024-01-30T01:12:53;9.35;;;4.32;;
29120;SDS011;16191;49.548;8.658;2024-01-30T01:15:21;14.45;;;6.40;;
29120;SDS011;16191;49.548;8.658;2024-01-30T01:17:48;12.13;;;6.15;;
29120;SDS011;16191;49.548;8.658;2024-01-30T01:20:15;12.07;;;5.40;;
29120;SDS011;16191;49.548;8.658;2024-01-30T01:22:42;9.30;;;4.85;;
29120;SDS011;16191;49.548;8.658;2024-01-30T01:25:08;21.77;;;5.78;;
29120;SDS011;16191;49.548;8.658;2024-01-30T01:27:36;9.75;;;5.78;;
29120;SDS011;16191;49.548;8.658;2024-01-30T01:30:08;19.42;;;6.03;;
29120;SDS011;16191;49.548;8.658;2024-01-30T01:32:36;10.15;;;5.25;;
29120;SDS011;16191;49.548;8.658;2024-01-30T01:35:04;9.73;;;6.28;;
29120;SDS011;16191;49.548;8.658;2024-01-30T01:37:34;13.88;;;6.47;;
29120;SDS011;16191;49.548;8.658;2024-01-30T01:40:01;13.18;;;6.30;;
29120;SDS011;16191;49.548;8.658;2024-01-30T01:42:28;12.95;;;6.30;;
29120;SDS011;16191;49.548;8.658;2024-01-30T01:44:54;10.10;;;5.70;;
29120;SDS011;16191;49.548;8.658;2024-01-30T01:47:21;9.70;;;5.88;;
29120;SDS011;16191;49.548;8.658;2024-01-30T01:49:49;12.85;;;5.70;;
29120;SDS011;16191;49.548;8.658;2024-01-30T01:52:16;11.18;;;5.35;;
29120;SDS011;16191;49.548;8.658;2024-01-30T01:54:43;11.35;;;5.00;;
29120;SDS011;16191;49.548;8.658;2024-01-30T01:57:10;9.50;;;5.50;;
29120;SDS011;16191;49.548;8.658;2024-01-30T01:59:37;14.98;;;4.90;;
29120;SDS011;16191;49.548;8.658;2024-01-30T02:02:04;9.93;;;5.18;;
29120;SDS011;16191;49.548;8.658;2024-01-30T02:07:01;12.48;;;5.53;;
29120;SDS011;16191;49.548;8.658;2024-01-30T02:09:28;9.07;;;5.63;;
29120;SDS011;16191;49.548;8.658;2024-01-30T02:11:54;11.70;;;5.43;;
29120;SDS011;16191;49.548;8.658;2024-01-30T02:14:21;11.55;;;6.38;;
29120;SDS011;16191;49.548;8.658;2024-01-30T02:16:48;15.05;;;7.78;;
29120;SDS011;16191;49.548;8.658;2024-01-30T02:19:15;16.70;;;8.57;;
29120;SDS011;16191;49.548;8.658;2024-01-30T02:21:41;14.32;;;8.63;;
29120;SDS011;16191;49.548;8.658;2024-01-30T02:24:08;17.98;;;9.02;;
29120;SDS011;16191;49.548;8.658;2024-01-30T02:26:35;15.00;;;8.45;;
29120;SDS011;16191;49.548;8.658;2024-01-30T02:29:01;17.08;;;8.38;;
29120;SDS011;16191;49.548;8.658;2024-01-30T02:31:28;19.17;;;8.90;;
29120;SDS011;16191;49.548;8.658;2024-01-30T02:33:55;18.13;;;10.93;;
29120;SDS011;16191;49.548;8.658;2024-01-30T02:36:22;23.63;;;10.52;;
29120;SDS011;16191;49.548;8.658;2024-01-30T02:38:48;21.10;;;10.88;;
29120;SDS011;16191;49.548;8.658;2024-01-30T02:41:35;18.77;;;10.98;;
29120;SDS011;16191;49.548;8.658;2024-01-30T02:44:22;20.10;;;11.45;;
29120;SDS011;16191;49.548;8.658;2024-01-30T02:47:09;22.38;;;11.20;;
29120;SDS011;16191;49.548;8.658;2024-01-30T02:49:56;21.42;;;11.55;;
29120;SDS011;16191;49.548;8.658;2024-01-30T02:52:43;18.88;;;10.98;;
29120;SDS011;16191;49.548;8.658;2024-01-30T02:55:32;19.37;;;10.63;;
29120;SDS011;16191;49.548;8.658;2024-01-30T02:57:59;23.45;;;12.07;;
29120;SDS011;16191;49.548;8.658;2024-01-30T03:00:26;22.23;;;11.15;;
29120;SDS011;16191;49.548;8.658;2024-01-30T03:02:53;22.48;;;11.75;;
29120;SDS011;16191;49.548;8.658;2024-01-30T03:05:20;21.92;;;11.82;;
29120;SDS011;16191;49.548;8.658;2024-01-30T03:07:47;20.77;;;10.88;;
29120;SDS011;16191;49.548;8.658;2024-01-30T03:10:13;16.88;;;11.07;;
29120;SDS011;16191;49.548;8.658;2024-01-30T03:12:40;16.92;;;10.45;;
29120;SDS011;16191;49.548;8.658;2024-01-30T03:15:07;22.83;;;10.85;;
29120;SDS011;16191;49.548;8.658;2024-01-30T03:17:36;22.70;;;11.95;;
29120;SDS011;16191;49.548;8.658;2024-01-30T03:20:04;19.75;;;10.68;;
29120;SDS011;16191;49.548;8.658;2024-01-30T03:22:32;18.70;;;9.77;;
29120;SDS011;16191;49.548;8.658;2024-01-30T03:24:59;18.60;;;10.35;;
29120;SDS011;16191;49.548;8.658;2024-01-30T03:27:26;16.50;;;9.07;;
29120;SDS011;16191;49.548;8.658;2024-01-30T03:29:52;21.60;;;9.68;;
29120;SDS011;16191;49.548;8.658;2024-01-30T03:32:19;21.60;;;9.50;;
29120;SDS011;16191;49.548;8.658;2024-01-30T03:34:46;21.45;;;10.50;;
29120;SDS011;16191;49.548;8.658;2024-01-30T03:37:13;16.92;;;9.73;;
29120;SDS011;16191;49.548;8.658;2024-01-30T03:39:40;19.38;;;9.38;;
29120;SDS011;16191;49.548;8.658;2024-01-30T03:42:07;27.48;;;9.52;;
29120;SDS011;16191;49.548;8.658;2024-01-30T03:44:33;15.77;;;8.60;;
29120;SDS011;16191;49.548;8.658;2024-01-30T03:47:00;14.98;;;8.20;;
29120;SDS011;16191;49.548;8.658;2024-01-30T03:49:27;14.68;;;7.85;;
29120;SDS011;16191;49.548;8.658;2024-01-30T03:51:53;16.77;;;7.38;;
29120;SDS011;16191;49.548;8.658;2024-01-30T03:54:20;11.10;;;7.13;;
29120;SDS011;16191;49.548;8.658;2024-01-30T03:56:47;14.60;;;7.45;;
29120;SDS011;16191;49.548;8.658;2024-01-30T03:59:13;13.32;;;7.43;;
29120;SDS011;16191;49.548;8.658;2024-01-30T04:01:40;12.45;;;7.38;;
29120;SDS011;16191;49.548;8.658;2024-01-30T04:04:07;13.52;;;7.60;;
29120;SDS011;16191;49.548;8.658;2024-01-30T04:06:34;14.77;;;7.72;;
29120;SDS011;16191;49.548;8.658;2024-01-30T04:09:01;13.65;;;7.75;;
29120;SDS011;16191;49.548;8.658;2024-01-30T04:11:30;15.73;;;7.80;;
29120;SDS011;16191;49.548;8.658;2024-01-30T04:13:56;14.15;;;7.63;;
29120;SDS011;16191;49.548;8.658;2024-01-30T04:16:23;13.65;;;8.02;;
29120;SDS011;16191;49.548;8.658;2024-01-30T04:18:51;16.92;;;8.77;;
29120;SDS011;16191;49.548;8.658;2024-01-30T04:21:20;16.42;;;9.18;;
29120;SDS011;16191;49.548;8.658;2024-01-30T04:23:47;18.73;;;10.60;;
29120;SDS011;16191;49.548;8.658;2024-01-30T04:26:14;19.13;;;10.23;;
29120;SDS011;16191;49.548;8.658;2024-01-30T04:28:41;20.13;;;10.15;;
29120;SDS011;16191;49.548;8.658;2024-01-30T04:31:08;19.38;;;11.13;;
29120;SDS011;16191;49.548;8.658;2024-01-30T04:33:35;19.60;;;11.98;;
29120;SDS011;16191;49.548;8.658;2024-01-30T04:36:02;16.75;;;9.45;;
29120;SDS011;16191;49.548;8.658;2024-01-30T04:38:31;19.50;;;10.00;;
29120;SDS011;16191;49.548;8.658;2024-01-30T04:40:57;18.10;;;9.60;;
29120;SDS011;16191;49.548;8.658;2024-01-30T04:43:24;14.20;;;8.63;;
29120;SDS011;16191;49.548;8.658;2024-01-30T04:45:52;16.45;;;8.52;;
29120;SDS011;16191;49.548;8.658;2024-01-30T04:48:19;21.25;;;9.02;;
29120;SDS011;16191;49.548;8.658;2024-01-30T04:50:46;15.43;;;8.70;;
29120;SDS011;16191;49.548;8.658;2024-01-30T04:53:13;15.07;;;7.90;;
29120;SDS011;16191;49.548;8.658;2024-01-30T04:55:40;16.92;;;8.70;;
29120;SDS011;16191;49.548;8.658;2024-01-30T04:58:07;13.15;;;7.50;;
29120;SDS011;16191;49.548;8.658;2024-01-30T05:00:34;13.20;;;7.10;;
29120;SDS011;16191;49.548;8.658;2024-01-30T05:03:01;16.90;;;8.07;;
29120;SDS011;16191;49.548;8.658;2024-01-30T05:05:27;12.18;;;7.35;;
29120;SDS011;16191;49.548;8.658;2024-01-30T05:07:54;14.02;;;7.78;;
29120;SDS011;16191;49.548;8.658;2024-01-30T05:10:21;13.98;;;7.50;;
29120;SDS011;16191;49.548;8.658;2024-01-30T05:12:47;14.60;;;7.28;;
29120;SDS011;16191;49.548;8.658;2024-01-30T05:15:14;16.10;;;7.60;;
29120;SDS011;16191;49.548;8.658;2024-01-30T05:17:41;15.43;;;8.15;;
29120;SDS011;16191;49.548;8.658;2024-01-30T05:20:08;14.68;;;8.73;;
29120;SDS011;16191;49.548;8.658;2024-01-30T05:22:37;15.98;;;8.75;;
29120;SDS011;16191;49.548;8.658;2024-01-30T05:25:04;15.95;;;8.82;;
29120;SDS011;16191;49.548;8.658;2024-01-30T05:27:31;18.15;;;9.07;;
29120;SDS011;16191;49.548;8.658;2024-01-30T05:29:58;17.13;;;9.45;;
29120;SDS011;16191;49.548;8.658;2024-01-30T05:32:25;16.60;;;8.90;;
29120;SDS011;16191;49.548;8.658;2024-01-30T05:34:51;19.40;;;9.88;;
29120;SDS011;16191;49.548;8.658;2024-01-30T05:37:18;26.85;;;10.23;;
29120;SDS011;16191;49.548;8.658;2024-01-30T05:39:45;17.25;;;9.95;;
29120;SDS011;16191;49.548;8.658;2024-01-30T05:42:12;21.45;;;10.70;;
29120;SDS011;16191;49.548;8.658;2024-01-30T05:44:39;17.60;;;10.70;;
29120;SDS011;16191;49.548;8.658;2024-01-30T05:47:06;17.08;;;9.60;;
29120;SDS011;16191;49.548;8.658;2024-01-30T05:49:33;19.27;;;9.70;;
29120;SDS011;16191;49.548;8.658;2024-01-30T05:51:59;17.25;;;10.27;;
29120;SDS011;16191;49.548;8.658;2024-01-30T05:54:26;19.67;;;10.75;;
29120;SDS011;16191;49.548;8.658;2024-01-30T05:56:53;21.75;;;11.05;;
29120;SDS011;16191;49.548;8.658;2024-01-30T05:59:20;19.92;;;10.68;;
29120;SDS011;16191;49.548;8.658;2024-01-30T06:01:47;21.63;;;10.05;;
29120;SDS011;16191;49.548;8.658;2024-01-30T06:04:14;22.25;;;10.23;;
29120;SDS011;16191;49.548;8.658;2024-01-30T06:06:41;18.88;;;9.68;;
29120;SDS011;16191;49.548;8.658;2024-01-30T06:09:08;16.65;;;9.68;;
29120;SDS011;16191;49.548;8.658;2024-01-30T06:11:39;21.80;;;10.18;;
29120;SDS011;16191;49.548;8.658;2024-01-30T06:14:06;18.90;;;10.05;;
29120;SDS011;16191;49.548;8.658;2024-01-30T06:16:32;17.05;;;9.40;;
29120;SDS011;16191;49.548;8.658;2024-01-30T06:18:59;20.02;;;10.00;;
29120;SDS011;16191;49.548;8.658;2024-01-30T06:21:26;17.13;;;9.35;;
29120;SDS011;16191;49.548;8.658;2024-01-30T06:23:53;20.83;;;10.15;;
29120;SDS011;16191;49.548;8.658;2024-01-30T06:26:20;14.32;;;8.85;;
29120;SDS011;16191;49.548;8.658;2024-01-30T06:28:46;15.63;;;10.13;;
29120;SDS011;16191;49.548;8.658;2024-01-30T06:31:13;18.20;;;10.30;;
29120;SDS011;16191;49.548;8.658;2024-01-30T06:33:40;19.85;;;9.60;;
29120;SDS011;16191;49.548;8.658;2024-01-30T06:36:09;16.60;;;9.95;;
29120;SDS011;16191;49.548;8.658;2024-01-30T06:38:35;17.33;;;9.63;;
29120;SDS011;16191;49.548;8.658;2024-01-30T06:41:02;15.55;;;9.38;;
29120;SDS011;16191;49.548;8.658;2024-01-30T06:43:29;16.92;;;9.68;;
29120;SDS011;16191;49.548;8.658;2024-01-30T06:45:55;20.23;;;9.75;;
29120;SDS011;16191;49.548;8.658;2024-01-30T06:48:23;18.77;;;9.40;;
29120;SDS011;16191;49.548;8.658;2024-01-30T06:50:52;18.48;;;9.40;;
29120;SDS011;16191;49.548;8.658;2024-01-30T06:53:20;15.60;;;8.55;;
29120;SDS011;16191;49.548;8.658;2024-01-30T06:55:47;15.43;;;9.77;;
29120;SDS011;16191;49.548;8.658;2024-01-30T06:58:13;17.77;;;9.85;;
29120;SDS011;16191;49.548;8.658;2024-01-30T07:00:40;18.38;;;10.25;;
29120;SDS011;16191;49.548;8.658;2024-01-30T07:03:07;17.42;;;10.52;;
29120;SDS011;16191;49.548;8.658;2024-01-30T07:05:33;18.20;;;9.82;;
29120;SDS011;16191;49.548;8.658;2024-01-30T07:08:00;17.30;;;9.85;;
29120;SDS011;16191;49.548;8.658;2024-01-30T07:10:27;20.70;;;10.07;;
29120;SDS011;16191;49.548;8.658;2024-01-30T07:12:54;21.23;;;10.10;;
29120;SDS011;16191;49.548;8.658;2024-01-30T07:15:20;16.80;;;9.60;;
29120;SDS011;16191;49.548;8.658;2024-01-30T07:17:47;21.33;;;10.20;;
29120;SDS011;16191;49.548;8.658;2024-01-30T07:20:14;16.05;;;9.50;;
29120;SDS011;16191;49.548;8.658;2024-01-30T07:22:43;18.55;;;9.90;;
29120;SDS011;16191;49.548;8.658;2024-01-30T07:25:10;18.98;;;10.00;;
29120;SDS011;16191;49.548;8.658;2024-01-30T07:27:37;13.88;;;9.13;;
29120;SDS011;16191;49.548;8.658;2024-01-30T07:30:04;17.95;;;9.82;;
29120;SDS011;16191;49.548;8.658;2024-01-30T07:32:32;17.00;;;9.73;;
29120;SDS011;16191;49.548;8.658;2024-01-30T07:34:58;18.33;;;9.23;;
29120;SDS011;16191;49.548;8.658;2024-01-30T07:37:34;15.15;;;8.68;;
29120;SDS011;16191;49.548;8.658;2024-01-30T07:40:02;18.83;;;9.30;;
29120;SDS011;16191;49.548;8.658;2024-01-30T07:42:30;14.40;;;8.85;;
29120;SDS011;16191;49.548;8.658;2024-01-30T07:44:57;15.95;;;9.20;;
29120;SDS011;16191;49.548;8.658;2024-01-30T07:47:23;14.95;;;8.43;;
29120;SDS011;16191;49.548;8.658;2024-01-30T07:49:52;22.33;;;10.00;;
29120;SDS011;16191;49.548;8.658;2024-01-30T07:52:21;18.48;;;9.63;;
29120;SDS011;16191;49.548;8.658;2024-01-30T07:54:47;14.13;;;8.30;;
29120;SDS011;16191;49.548;8.658;2024-01-30T07:57:14;22.15;;;8.98;;
29120;SDS011;16191;49.548;8.658;2024-01-30T07:59:44;16.50;;;9.63;;
29120;SDS011;16191;49.548;8.658;2024-01-30T08:02:14;18.42;;;9.18;;
29120;SDS011;16191;49.548;8.658;2024-01-30T08:04:41;17.00;;;9.52;;
29120;SDS011;16191;49.548;8.658;2024-01-30T08:07:08;21.45;;;11.70;;
29120;SDS011;16191;49.548;8.658;2024-01-30T08:09:35;22.98;;;11.63;;
29120;SDS011;16191;49.548;8.658;2024-01-30T08:12:02;25.98;;;11.95;;
29120;SDS011;16191;49.548;8.658;2024-01-30T08:14:29;24.23;;;11.32;;
29120;SDS011;16191;49.548;8.658;2024-01-30T08:16:55;22.70;;;11.93;;
29120;SDS011;16191;49.548;8.658;2024-01-30T08:19:22;23.42;;;12.48;;
29120;SDS011;16191;49.548;8.658;2024-01-30T08:21:49;23.77;;;13.32;;
29120;SDS011;16191;49.548;8.658;2024-01-30T08:24:16;25.23;;;13.60;;
29120;SDS011;16191;49.548;8.658;2024-01-30T08:26:42;22.13;;;13.15;;
29120;SDS011;16191;49.548;8.658;2024-01-30T08:29:09;31.10;;;14.25;;
29120;SDS011;16191;49.548;8.658;2024-01-30T08:31:36;22.75;;;13.68;;
29120;SDS011;16191;49.548;8.658;2024-01-30T08:34:03;17.75;;;9.93;;
29120;SDS011;16191;49.548;8.658;2024-01-30T08:36:30;21.75;;;10.98;;
29120;SDS011;16191;49.548;8.658;2024-01-30T08:38:57;17.65;;;9.48;;
29120;SDS011;16191;49.548;8.658;2024-01-30T08:41:29;17.75;;;9.45;;
29120;SDS011;16191;49.548;8.658;2024-01-30T08:43:56;16.40;;;8.45;;
29120;SDS011;16191;49.548;8.658;2024-01-30T08:46:23;15.57;;;7.97;;
29120;SDS011;16191;49.548;8.658;2024-01-30T08:48:50;15.05;;;7.90;;
29120;SDS011;16191;49.548;8.658;2024-01-30T08:51:17;14.48;;;7.32;;
29120;SDS011;16191;49.548;8.658;2024-01-30T08:53:43;11.90;;;7.25;;
29120;SDS011;16191;49.548;8.658;2024-01-30T08:56:10;16.15;;;7.97;;
29120;SDS011;16191;49.548;8.658;2024-01-30T08:58:37;14.63;;;6.72;;
29120;SDS011;16191;49.548;8.658;2024-01-30T09:01:03;13.43;;;6.85;;
29120;SDS011;16191;49.548;8.658;2024-01-30T09:03:32;15.98;;;8.90;;
29120;SDS011;16191;49.548;8.658;2024-01-30T09:05:59;11.02;;;6.97;;
29120;SDS011;16191;49.548;8.658;2024-01-30T09:08:26;16.27;;;6.95;;
29120;SDS011;16191;49.548;8.658;2024-01-30T09:10:52;14.10;;;6.70;;
29120;SDS011;16191;49.548;8.658;2024-01-30T09:13:19;13.07;;;7.28;;
29120;SDS011;16191;49.548;8.658;2024-01-30T09:15:46;12.30;;;6.38;;
29120;SDS011;16191;49.548;8.658;2024-01-30T09:18:13;12.82;;;7.43;;
29120;SDS011;16191;49.548;8.658;2024-01-30T09:20:39;11.90;;;6.88;;
29120;SDS011;16191;49.548;8.658;2024-01-30T09:23:06;10.80;;;6.63;;
29120;SDS011;16191;49.548;8.658;2024-01-30T09:25:32;10.73;;;7.05;;
29120;SDS011;16191;49.548;8.658;2024-01-30T09:28:01;13.85;;;6.85;;
29120;SDS011;16191;49.548;8.658;2024-01-30T09:30:28;11.57;;;6.80;;
29120;SDS011;16191;49.548;8.658;2024-01-30T09:32:55;10.20;;;6.97;;
29120;SDS011;16191;49.548;8.658;2024-01-30T09:35:22;14.13;;;7.10;;
29120;SDS011;16191;49.548;8.658;2024-01-30T09:37:49;11.57;;;7.57;;
29120;SDS011;16191;49.548;8.658;2024-01-30T09:40:16;10.15;;;6.88;;
29120;SDS011;16191;49.548;8.658;2024-01-30T09:42:49;14.20;;;7.47;;
29120;SDS011;16191;49.548;8.658;2024-01-30T09:45:17;16.75;;;6.70;;
29120;SDS011;16191;49.548;8.658;2024-01-30T09:47:45;14.13;;;7.00;;
29120;SDS011;16191;49.548;8.658;2024-01-30T09:50:13;13.77;;;6.65;;
29120;SDS011;16191;49.548;8.658;2024-01-30T09:52:41;12.68;;;6.30;;
29120;SDS011;16191;49.548;8.658;2024-01-30T09:55:10;13.93;;;6.78;;
29120;SDS011;16191;49.548;8.658;2024-01-30T09:57:37;19.85;;;9.00;;
29120;SDS011;16191;49.548;8.658;2024-01-30T10:00:04;21.52;;;10.07;;
29120;SDS011;16191;49.548;8.658;2024-01-30T10:02:40;14.75;;;8.57;;
29120;SDS011;16191;49.548;8.658;2024-01-30T10:05:07;17.13;;;9.02;;
29120;SDS011;16191;49.548;8.658;2024-01-30T10:07:35;15.40;;;8.48;;
29120;SDS011;16191;49.548;8.658;2024-01-30T10:10:02;14.57;;;7.95;;
29120;SDS011;16191;49.548;8.658;2024-01-30T10:12:29;17.30;;;7.63;;
29120;SDS011;16191;49.548;8.658;2024-01-30T10:14:56;19.63;;;8.02;;
29120;SDS011;16191;49.548;8.658;2024-01-30T10:17:25;19.23;;;9.48;;
29120;SDS011;16191;49.548;8.658;2024-01-30T10:19:59;17.27;;;7.93;;
29120;SDS011;16191;49.548;8.658;2024-01-30T10:22:27;16.67;;;9.30;;
29120;SDS011;16191;49.548;8.658;2024-01-30T10:24:54;16.77;;;7.68;;
29120;SDS011;16191;49.548;8.658;2024-01-30T10:27:27;14.88;;;7.97;;
29120;SDS011;16191;49.548;8.658;2024-01-30T10:29:56;14.02;;;7.55;;
29120;SDS011;16191;49.548;8.658;2024-01-30T10:32:23;14.02;;;7.15;;
29120;SDS011;16191;49.548;8.658;2024-01-30T10:34:50;15.65;;;7.28;;
29120;SDS011;16191;49.548;8.658;2024-01-30T10:37:17;17.83;;;7.95;;
29120;SDS011;16191;49.548;8.658;2024-01-30T10:39:45;13.68;;;7.13;;
29120;SDS011;16191;49.548;8.658;2024-01-30T10:42:17;12.90;;;7.45;;
29120;SDS011;16191;49.548;8.658;2024-01-30T10:47:41;12.15;;;6.13;;
29120;SDS011;16191;49.548;8.658;2024-01-30T10:50:15;14.57;;;6.00;;
29120;SDS011;16191;49.548;8.658;2024-01-30T10:52:42;10.07;;;5.68;;
29120;SDS011;16191;49.548;8.658;2024-01-30T10:55:10;11.98;;;6.22;;
29120;SDS011;16191;49.548;8.658;2024-01-30T10:57:37;10.93;;;5.55;;
29120;SDS011;16191;49.548;8.658;2024-01-30T11:00:05;11.13;;;5.32;;
29120;SDS011;16191;49.548;8.658;2024-01-30T11:02:40;12.18;;;5.90;;
29120;SDS011;16191;49.548;8.658;2024-01-30T11:05:09;10.57;;;5.50;;
29120;SDS011;16191;49.548;8.658;2024-01-30T11:07:38;8.77;;;5.05;;
29120;SDS011;16191;49.548;8.658;2024-01-30T11:10:05;13.35;;;5.93;;
29120;SDS011;16191;49.548;8.658;2024-01-30T11:12:39;7.18;;;5.10;;
29120;SDS011;16191;49.548;8.658;2024-01-30T11:15:08;10.30;;;5.03;;
29120;SDS011;16191;49.548;8.658;2024-01-30T11:17:42;7.90;;;4.85;;
29120;SDS011;16191;49.548;8.658;2024-01-30T11:20:22;9.77;;;5.20;;
29120;SDS011;16191;49.548;8.658;2024-01-30T11:22:53;9.20;;;5.20;;
29120;SDS011;16191;49.548;8.658;2024-01-30T11:25:22;11.60;;;5.90;;
29120;SDS011;16191;49.548;8.658;2024-01-30T11:27:51;11.80;;;5.68;;
29120;SDS011;16191;49.548;8.658;2024-01-30T11:30:26;9.00;;;5.22;;
29120;SDS011;16191;49.548;8.658;2024-01-30T11:33:01;9.88;;;5.80;;
29120;SDS011;16191;49.548;8.658;2024-01-30T11:35:32;8.63;;;5.22;;
29120;SDS011;16191;49.548;8.658;2024-01-30T11:38:00;11.60;;;6.13;;
29120;SDS011;16191;49.548;8.658;2024-01-30T11:40:27;12.45;;;5.45;;
29120;SDS011;16191;49.548;8.658;2024-01-30T11:42:56;12.23;;;5.60;;
29120;SDS011;16191;49.548;8.658;2024-01-30T11:45:24;14.18;;;5.90;;
29120;SDS011;16191;49.548;8.658;2024-01-30T11:47:51;9.43;;;5.80;;
29120;SDS011;16191;49.548;8.658;2024-01-30T11:50:18;11.75;;;5.63;;
29120;SDS011;16191;49.548;8.658;2024-01-30T11:52:46;10.32;;;6.13;;
29120;SDS011;16191;49.548;8.658;2024-01-30T11:55:17;8.43;;;6.05;;
29120;SDS011;16191;49.548;8.658;2024-01-30T11:57:45;8.85;;;5.88;;
29120;SDS011;16191;49.548;8.658;2024-01-30T12:00:18;8.50;;;5.95;;
29120;SDS011;16191;49.548;8.658;2024-01-30T12:02:48;11.98;;;6.20;;
29120;SDS011;16191;49.548;8.658;2024-01-30T12:05:16;13.63;;;5.97;;
29120;SDS011;16191;49.548;8.658;2024-01-30T12:07:46;10.90;;;6.40;;
29120;SDS011;16191;49.548;8.658;2024-01-30T12:10:13;14.32;;;5.82;;
29120;SDS011;16191;49.548;8.658;2024-01-30T12:12:47;11.70;;;5.90;;
29120;SDS011;16191;49.548;8.658;2024-01-30T12:15:16;11.52;;;6.13;;
29120;SDS011;16191;49.548;8.658;2024-01-30T12:17:44;10.77;;;5.60;;
29120;SDS011;16191;49.548;8.658;2024-01-30T12:22:39;14.40;;;6.18;;
29120;SDS011;16191;49.548;8.658;2024-01-30T12:25:07;11.85;;;6.38;;
29120;SDS011;16191;49.548;8.658;2024-01-30T12:27:36;12.27;;;6.57;;
29120;SDS011;16191;49.548;8.658;2024-01-30T12:30:07;11.38;;;6.05;;
29120;SDS011;16191;49.548;8.658;2024-01-30T12:32:42;8.55;;;5.60;;
29120;SDS011;16191;49.548;8.658;2024-01-30T12:35:10;13.43;;;6.40;;
29120;SDS011;16191;49.548;8.658;2024-01-30T12:37:38;14.18;;;6.55;;
29120;SDS011;16191;49.548;8.658;2024-01-30T12:40:09;11.30;;;6.57;;
29120;SDS011;16191;49.548;8.658;2024-01-30T12:42:43;14.43;;;6.85;;
29120;SDS011;16191;49.548;8.658;2024-01-30T12:45:16;11.63;;;6.40;;
29120;SDS011;16191;49.548;8.658;2024-01-30T12:47:47;13.65;;;7.40;;
29120;SDS011;16191;49.548;8.658;2024-01-30T12:50:14;14.98;;;6.07;;
29120;SDS011;16191;49.548;8.658;2024-01-30T12:52:43;11.80;;;7.18;;
29120;SDS011;16191;49.548;8.658;2024-01-30T12:55:13;12.32;;;5.85;;
29120;SDS011;16191;49.548;8.658;2024-01-30T12:57:39;15.65;;;7.20;;
29120;SDS011;16191;49.548;8.658;2024-01-30T13:00:06;10.00;;;6.35;;
29120;SDS011;16191;49.548;8.658;2024-01-30T13:02:35;13.98;;;6.65;;
29120;SDS011;16191;49.548;8.658;2024-01-30T13:05:03;11.88;;;6.72;;
29120;SDS011;16191;49.548;8.658;2024-01-30T13:07:30;13.68;;;6.97;;
29120;SDS011;16191;49.548;8.658;2024-01-30T13:09:58;12.65;;;6.68;;
29120;SDS011;16191;49.548;8.658;2024-01-30T13:12:31;15.10;;;6.97;;
29120;SDS011;16191;49.548;8.658;2024-01-30T13:15:02;9.88;;;5.95;;
29120;SDS011;16191;49.548;8.658;2024-01-30T13:17:31;11.27;;;6.50;;
29120;SDS011;16191;49.548;8.658;2024-01-30T13:19:58;14.63;;;6.00;;
29120;SDS011;16191;49.548;8.658;2024-01-30T13:22:35;9.05;;;5.82;;
29120;SDS011;16191;49.548;8.658;2024-01-30T13:25:04;15.82;;;6.53;;
29120;SDS011;16191;49.548;8.658;2024-01-30T13:27:31;13.60;;;6.97;;
29120;SDS011;16191;49.548;8.658;2024-01-30T13:29:58;12.75;;;7.15;;
29120;SDS011;16191;49.548;8.658;2024-01-30T13:32:25;14.10;;;6.63;;
29120;SDS011;16191;49.548;8.658;2024-01-30T13:34:52;11.63;;;6.65;;
29120;SDS011;16191;49.548;8.658;2024-01-30T13:37:19;11.25;;;6.47;;
29120;SDS011;16191;49.548;8.658;2024-01-30T13:39:46;10.43;;;6.18;;
29120;SDS011;16191;49.548;8.658;2024-01-30T13:42:13;13.35;;;6.57;;
29120;SDS011;16191;49.548;8.658;2024-01-30T13:44:40;10.85;;;6.00;;
29120;SDS011;16191;49.548;8.658;2024-01-30T13:47:06;14.25;;;6.75;;
29120;SDS011;16191;49.548;8.658;2024-01-30T13:49:33;11.90;;;5.78;;
29120;SDS011;16191;49.548;8.658;2024-01-30T13:52:00;11.18;;;5.55;;
29120;SDS011;16191;49.548;8.658;2024-01-30T13:54:27;9.60;;;6.18;;
29120;SDS011;16191;49.548;8.658;2024-01-30T13:56:54;12.77;;;5.55;;
29120;SDS011;16191;49.548;8.658;2024-01-30T13:59:21;12.85;;;6.65;;
29120;SDS011;16191;49.548;8.658;2024-01-30T14:01:50;10.67;;;5.43;;
29120;SDS011;16191;49.548;8.658;2024-01-30T14:04:18;11.45;;;5.18;;
29120;SDS011;16191;49.548;8.658;2024-01-30T14:06:45;10.73;;;5.60;;
29120;SDS011;16191;49.548;8.658;2024-01-30T14:09:22;8.93;;;6.03;;
29120;SDS011;16191;49.548;8.658;2024-01-30T14:11:49;12.73;;;6.03;;
29120;SDS011;16191;49.548;8.658;2024-01-30T14:14:15;10.15;;;5.25;;
29120;SDS011;16191;49.548;8.658;2024-01-30T14:16:42;11.43;;;5.22;;
29120;SDS011;16191;49.548;8.658;2024-01-30T14:19:09;12.57;;;5.70;;
29120;SDS011;16191;49.548;8.658;2024-01-30T14:21:35;11.88;;;5.60;;
29120;SDS011;16191;49.548;8.658;2024-01-30T14:24:03;9.45;;;5.80;;
29120;SDS011;16191;49.548;8.658;2024-01-30T14:26:31;8.40;;;5.70;;
29120;SDS011;16191;49.548;8.658;2024-01-30T14:28:57;11.40;;;6.25;;
29120;SDS011;16191;49.548;8.658;2024-01-30T14:31:24;12.15;;;5.10;;
29120;SDS011;16191;49.548;8.658;2024-01-30T14:33:51;9.80;;;5.32;;
29120;SDS011;16191;49.548;8.658;2024-01-30T14:36:18;9.73;;;5.15;;
29120;SDS011;16191;49.548;8.658;2024-01-30T14:38:47;10.40;;;5.15;;
29120;SDS011;16191;49.548;8.658;2024-01-30T14:41:14;9.73;;;5.35;;
29120;SDS011;16191;49.548;8.658;2024-01-30T14:43:41;9.57;;;5.20;;
29120;SDS011;16191;49.548;8.658;2024-01-30T14:46:08;10.10;;;5.15;;